createdAt,value
2023-03-27T00:00:22.832Z,7.49
2023-03-27T00:01:22.831Z,7.49
2023-03-27T00:02:22.932Z,7.37
2023-03-27T00:03:22.924Z,7.37
2023-03-27T00:04:22.791Z,7.32
2023-03-27T00:05:22.777Z,7.31
2023-03-27T00:06:22.789Z,7.34
2023-03-27T00:07:27.772Z,7.35
2023-03-27T00:08:22.774Z,7.27
2023-03-27T00:09:22.733Z,7.25
2023-03-27T00:10:22.720Z,7.20
2023-03-27T00:11:22.707Z,7.23
2023-03-27T00:12:22.699Z,7.16
2023-03-27T00:13:22.687Z,7.09
2023-03-27T00:14:22.715Z,7.12
2023-03-27T00:15:22.694Z,7.02
2023-03-27T00:16:22.694Z,7.09
2023-03-27T00:17:22.642Z,6.97
2023-03-27T00:18:27.647Z,6.99
2023-03-27T00:19:22.638Z,6.92
2023-03-27T00:20:22.647Z,6.92
2023-03-27T00:21:22.640Z,6.92
2023-03-27T00:22:22.606Z,6.89
2023-03-27T00:23:22.577Z,6.91
2023-03-27T00:24:22.577Z,6.87
2023-03-27T00:25:22.548Z,6.79
2023-03-27T00:26:22.553Z,6.74
2023-03-27T00:27:22.523Z,6.92
2023-03-27T00:28:22.517Z,6.79
2023-03-27T00:29:27.557Z,6.79
2023-03-27T00:30:22.519Z,6.88
2023-03-27T00:31:22.493Z,6.77
2023-03-27T00:32:22.483Z,6.77
2023-03-27T00:33:22.464Z,6.76
2023-03-27T00:34:22.448Z,6.84
2023-03-27T00:35:22.493Z,6.74
2023-03-27T00:36:22.443Z,6.77
2023-03-27T00:37:22.411Z,6.77
2023-03-27T00:38:22.448Z,6.76
2023-03-27T00:39:22.386Z,6.73
2023-03-27T00:40:27.422Z,6.74
2023-03-27T00:41:22.437Z,6.74
2023-03-27T00:42:22.354Z,6.73
2023-03-27T00:43:22.354Z,6.71
2023-03-27T00:44:22.359Z,6.79
2023-03-27T00:45:22.363Z,6.73
2023-03-27T00:46:22.344Z,6.73
2023-03-27T00:47:22.298Z,6.76
2023-03-27T00:48:22.299Z,6.77
2023-03-27T00:49:22.280Z,6.71
2023-03-27T00:50:22.323Z,6.74
2023-03-27T00:51:27.274Z,6.71
2023-03-27T00:52:22.244Z,6.66
2023-03-27T00:53:22.232Z,6.73
2023-03-27T00:54:22.257Z,6.71
2023-03-27T00:55:22.219Z,6.70
2023-03-27T00:56:22.230Z,6.74
2023-03-27T00:57:22.190Z,6.66
2023-03-27T00:58:22.174Z,6.64
2023-03-27T00:59:22.168Z,6.61
2023-03-27T01:00:22.197Z,6.64
2023-03-27T01:01:22.203Z,6.66
2023-03-27T01:02:27.264Z,6.64
2023-03-27T01:03:22.292Z,6.62
2023-03-27T01:04:22.108Z,6.62
2023-03-27T01:05:22.109Z,6.54
2023-03-27T01:06:22.089Z,6.54
2023-03-27T01:07:22.068Z,6.56
2023-03-27T01:08:22.062Z,6.54
2023-03-27T01:09:22.105Z,6.55
2023-03-27T01:10:22.076Z,6.54
2023-03-27T01:11:22.025Z,6.58
2023-03-27T01:12:22.013Z,6.52
2023-03-27T01:13:27.038Z,6.55
2023-03-27T01:14:22.010Z,6.54
2023-03-27T01:15:22.049Z,6.55
2023-03-27T01:16:21.985Z,6.58
2023-03-27T01:17:22.014Z,6.55
2023-03-27T01:18:21.949Z,6.55
2023-03-27T01:19:21.931Z,6.54
2023-03-27T01:20:21.930Z,6.55
2023-03-27T01:21:21.908Z,6.56
2023-03-27T01:22:21.944Z,6.58
2023-03-27T01:23:35.961Z,6.56
2023-03-27T01:24:26.909Z,6.58
2023-03-27T01:25:21.871Z,6.54
2023-03-27T01:26:35.426Z,6.55
2023-03-27T01:27:22.840Z,6.58
2023-03-27T01:28:21.888Z,6.56
2023-03-27T01:29:21.822Z,6.56
2023-03-27T01:30:21.824Z,6.55
2023-03-27T01:31:21.821Z,6.62
2023-03-27T01:32:21.952Z,6.58
2023-03-27T01:33:21.777Z,6.62
2023-03-27T01:34:21.803Z,6.62
2023-03-27T01:35:26.821Z,6.55
2023-03-27T01:36:21.740Z,6.54
2023-03-27T01:37:21.730Z,6.51
2023-03-27T01:38:21.714Z,6.59
2023-03-27T01:39:21.711Z,6.54
2023-03-27T01:40:21.734Z,6.55
2023-03-27T01:41:21.729Z,6.59
2023-03-27T01:42:21.704Z,6.44
2023-03-27T01:43:21.661Z,6.44
2023-03-27T01:44:21.650Z,6.43
2023-03-27T01:45:21.642Z,6.54
2023-03-27T01:46:26.708Z,6.41
2023-03-27T01:47:21.709Z,6.46
2023-03-27T01:48:21.604Z,6.38
2023-03-27T01:49:21.593Z,6.34
2023-03-27T01:50:21.585Z,6.43
2023-03-27T01:51:21.582Z,6.43
2023-03-27T01:52:21.583Z,6.43
2023-03-27T01:53:21.549Z,6.44
2023-03-27T01:54:21.545Z,6.41
2023-03-27T01:55:21.536Z,6.36
2023-03-27T01:56:21.528Z,6.36
2023-03-27T01:57:26.548Z,6.31
2023-03-27T01:58:21.542Z,6.30
2023-03-27T01:59:21.486Z,6.14
2023-03-27T02:00:21.474Z,6.33
2023-03-27T02:01:21.546Z,6.19
2023-03-27T02:02:21.511Z,6.04
2023-03-27T02:03:21.433Z,6.06
2023-03-27T02:04:21.449Z,6.01
2023-03-27T02:05:21.452Z,5.99
2023-03-27T02:06:21.428Z,5.89
2023-03-27T02:07:21.406Z,5.91
2023-03-27T02:08:26.403Z,5.75
2023-03-27T02:09:21.365Z,5.74
2023-03-27T02:10:21.356Z,5.72
2023-03-27T02:11:21.375Z,5.67
2023-03-27T02:12:21.339Z,5.63
2023-03-27T02:13:21.353Z,5.65
2023-03-27T02:14:21.326Z,5.65
2023-03-27T02:15:23.260Z,5.63
2023-03-27T02:16:21.337Z,5.56
2023-03-27T02:17:21.331Z,5.51
2023-03-27T02:18:21.268Z,5.45
2023-03-27T02:19:26.291Z,5.46
2023-03-27T02:20:21.250Z,5.53
2023-03-27T02:21:21.245Z,5.45
2023-03-27T02:22:37.648Z,5.45
2023-03-27T02:23:21.240Z,5.38
2023-03-27T02:24:21.197Z,5.39
2023-03-27T02:25:21.191Z,5.36
2023-03-27T02:26:21.183Z,5.28
2023-03-27T02:27:21.170Z,5.39
2023-03-27T02:28:21.162Z,5.33
2023-03-27T02:29:21.179Z,5.25
2023-03-27T02:30:26.159Z,5.15
2023-03-27T02:31:34.023Z,5.24
2023-03-27T02:32:21.164Z,5.22
2023-03-27T02:33:21.165Z,5.18
2023-03-27T02:34:21.089Z,5.20
2023-03-27T02:35:21.157Z,5.25
2023-03-27T02:36:21.097Z,5.21
2023-03-27T02:37:21.057Z,5.12
2023-03-27T02:38:21.040Z,5.17
2023-03-27T02:39:21.031Z,5.17
2023-03-27T02:40:21.018Z,5.13
2023-03-27T02:41:26.189Z,5.13
2023-03-27T02:42:20.993Z,5.09
2023-03-27T02:43:20.990Z,5.07
2023-03-27T02:44:20.987Z,5.17
2023-03-27T02:45:20.995Z,5.02
2023-03-27T02:46:21.017Z,5.06
2023-03-27T02:47:20.987Z,5.03
2023-03-27T02:48:20.934Z,5.02
2023-03-27T02:49:20.921Z,4.94
2023-03-27T02:50:20.911Z,4.86
2023-03-27T02:51:20.905Z,4.88
2023-03-27T02:52:25.927Z,4.84
2023-03-27T02:53:20.888Z,4.86
2023-03-27T02:54:20.886Z,4.82
2023-03-27T02:55:20.855Z,4.75
2023-03-27T02:56:20.849Z,4.72
2023-03-27T02:57:21.822Z,4.72
2023-03-27T02:58:20.830Z,4.72
2023-03-27T02:59:20.813Z,4.65
2023-03-27T03:00:20.904Z,4.67
2023-03-27T03:01:20.856Z,4.67
2023-03-27T03:02:20.837Z,4.66
2023-03-27T03:03:25.824Z,4.63
2023-03-27T03:04:20.767Z,4.54
2023-03-27T03:05:20.784Z,4.67
2023-03-27T03:06:20.778Z,4.58
2023-03-27T03:07:20.744Z,4.60
2023-03-27T03:08:20.714Z,4.60
2023-03-27T03:09:20.700Z,4.54
2023-03-27T03:10:20.698Z,4.60
2023-03-27T03:11:20.676Z,4.54
2023-03-27T03:12:20.706Z,4.48
2023-03-27T03:13:20.655Z,4.50
2023-03-27T03:14:25.673Z,4.42
2023-03-27T03:15:20.633Z,4.45
2023-03-27T03:16:20.630Z,4.48
2023-03-27T03:17:20.638Z,4.45
2023-03-27T03:18:20.657Z,4.52
2023-03-27T03:19:20.586Z,4.42
2023-03-27T03:20:20.571Z,4.47
2023-03-27T03:21:20.560Z,4.45
2023-03-27T03:22:20.548Z,4.34
2023-03-27T03:23:20.549Z,4.40
2023-03-27T03:24:20.551Z,4.44
2023-03-27T03:25:25.539Z,4.32
2023-03-27T03:26:20.505Z,4.32
2023-03-27T03:27:20.503Z,4.37
2023-03-27T03:28:20.491Z,4.36
2023-03-27T03:29:20.473Z,4.33
2023-03-27T03:30:20.508Z,4.40
2023-03-27T03:31:20.521Z,4.36
2023-03-27T03:32:20.433Z,4.29
2023-03-27T03:33:20.465Z,4.29
2023-03-27T03:34:20.415Z,4.30
2023-03-27T03:35:20.406Z,4.32
2023-03-27T03:36:25.442Z,4.26
2023-03-27T03:37:20.395Z,4.20
2023-03-27T03:38:20.374Z,4.24
2023-03-27T03:39:20.387Z,4.14
2023-03-27T03:40:20.368Z,4.29
2023-03-27T03:41:20.347Z,4.23
2023-03-27T03:42:22.618Z,4.30
2023-03-27T03:43:20.323Z,4.22
2023-03-27T03:44:20.297Z,4.18
2023-03-27T03:45:20.297Z,4.14
2023-03-27T03:46:20.312Z,4.16
2023-03-27T03:47:25.336Z,4.16
2023-03-27T03:48:20.301Z,4.18
2023-03-27T03:49:20.286Z,4.15
2023-03-27T03:50:20.235Z,4.14
2023-03-27T03:51:20.222Z,4.04
2023-03-27T03:52:20.253Z,4.12
2023-03-27T03:53:20.207Z,4.09
2023-03-27T03:54:20.207Z,4.09
2023-03-27T03:55:20.182Z,4.08
2023-03-27T03:56:20.163Z,4.12
2023-03-27T03:57:20.154Z,4.12
2023-03-27T03:58:34.398Z,4.16
2023-03-27T03:59:20.133Z,4.08
2023-03-27T04:00:20.118Z,4.06
2023-03-27T04:01:20.148Z,4.08
2023-03-27T04:02:20.164Z,4.12
2023-03-27T04:03:20.211Z,4.16
2023-03-27T04:04:20.076Z,4.14
2023-03-27T04:05:20.189Z,4.05
2023-03-27T04:06:20.621Z,4.08
2023-03-27T04:07:20.107Z,4.02
2023-03-27T04:08:20.034Z,4.06
2023-03-27T04:09:25.051Z,4.06
2023-03-27T04:10:20.005Z,4.00
2023-03-27T04:11:19.996Z,4.12
2023-03-27T04:12:19.982Z,4.08
2023-03-27T04:13:20.031Z,4.05
2023-03-27T04:14:19.958Z,4.12
2023-03-27T04:15:19.948Z,4.06
2023-03-27T04:16:19.992Z,3.98
2023-03-27T04:17:19.945Z,3.96
2023-03-27T04:18:20.065Z,4.02
2023-03-27T04:19:20.006Z,4.00
2023-03-27T04:20:24.924Z,4.02
2023-03-27T04:21:19.882Z,3.98
2023-03-27T04:22:19.864Z,4.05
2023-03-27T04:23:19.881Z,4.00
2023-03-27T04:24:19.844Z,3.98
2023-03-27T04:25:19.913Z,3.86
2023-03-27T04:26:19.885Z,3.91
2023-03-27T04:27:19.814Z,4.00
2023-03-27T04:28:19.829Z,3.88
2023-03-27T04:29:19.788Z,3.91
2023-03-27T04:30:19.780Z,3.96
2023-03-27T04:31:24.899Z,3.93
2023-03-27T04:32:19.755Z,3.88
2023-03-27T04:33:19.758Z,3.94
2023-03-27T04:34:19.736Z,3.94
2023-03-27T04:35:19.732Z,3.90
2023-03-27T04:36:19.812Z,3.93
2023-03-27T04:37:23.158Z,3.93
2023-03-27T04:38:19.719Z,3.90
2023-03-27T04:39:19.692Z,3.90
2023-03-27T04:40:19.687Z,3.91
2023-03-27T04:41:19.698Z,3.84
2023-03-27T04:42:24.675Z,3.94
2023-03-27T04:43:19.732Z,3.87
2023-03-27T04:44:19.624Z,3.86
2023-03-27T04:45:19.625Z,3.78
2023-03-27T04:46:19.636Z,3.83
2023-03-27T04:47:19.594Z,3.76
2023-03-27T04:48:19.582Z,3.72
2023-03-27T04:49:19.645Z,3.80
2023-03-27T04:50:19.569Z,3.80
2023-03-27T04:51:19.563Z,3.83
2023-03-27T04:52:19.565Z,3.75
2023-03-27T04:53:24.554Z,3.79
2023-03-27T04:54:19.528Z,3.75
2023-03-27T04:55:19.590Z,3.78
2023-03-27T04:56:19.500Z,3.79
2023-03-27T04:57:19.503Z,3.76
2023-03-27T04:58:19.527Z,3.80
2023-03-27T04:59:19.474Z,3.75
2023-03-27T05:00:19.611Z,3.75
2023-03-27T05:01:19.483Z,3.80
2023-03-27T05:02:19.427Z,3.79
2023-03-27T05:03:19.506Z,3.69
2023-03-27T05:04:24.447Z,3.68
2023-03-27T05:05:19.398Z,3.69
2023-03-27T05:06:19.380Z,3.70
2023-03-27T05:07:19.376Z,3.68
2023-03-27T05:08:19.389Z,3.68
2023-03-27T05:09:19.393Z,3.69
2023-03-27T05:10:21.828Z,3.70
2023-03-27T05:11:19.325Z,3.70
2023-03-27T05:12:19.346Z,3.69
2023-03-27T05:13:19.308Z,3.60
2023-03-27T05:14:19.329Z,3.65
2023-03-27T05:15:24.312Z,3.66
2023-03-27T05:16:19.397Z,3.57
2023-03-27T05:17:19.276Z,3.62
2023-03-27T05:18:19.246Z,3.61
2023-03-27T05:19:19.254Z,3.61
2023-03-27T05:20:19.233Z,3.62
2023-03-27T05:21:19.214Z,3.66
2023-03-27T05:22:19.221Z,3.58
2023-03-27T05:23:19.190Z,3.69
2023-03-27T05:24:19.212Z,3.62
2023-03-27T05:25:19.184Z,3.61
2023-03-27T05:26:24.179Z,3.62
2023-03-27T05:27:19.156Z,3.65
2023-03-27T05:28:19.178Z,3.60
2023-03-27T05:29:19.148Z,3.68
2023-03-27T05:30:19.113Z,3.61
2023-03-27T05:31:19.143Z,3.65
2023-03-27T05:32:19.092Z,3.57
2023-03-27T05:33:19.087Z,3.68
2023-03-27T05:34:19.143Z,3.70
2023-03-27T05:35:19.098Z,3.57
2023-03-27T05:36:19.065Z,3.69
2023-03-27T05:37:24.928Z,3.72
2023-03-27T05:38:19.025Z,3.72
2023-03-27T05:39:19.022Z,3.70
2023-03-27T05:40:19.027Z,3.65
2023-03-27T05:41:18.995Z,3.58
2023-03-27T05:42:18.984Z,3.72
2023-03-27T05:43:18.968Z,3.65
2023-03-27T05:44:18.972Z,3.62
2023-03-27T05:45:18.948Z,3.69
2023-03-27T05:46:21.245Z,3.69
2023-03-27T05:47:18.933Z,3.72
2023-03-27T05:48:23.936Z,3.68
2023-03-27T05:49:18.926Z,3.69
2023-03-27T05:50:18.885Z,3.69
2023-03-27T05:51:18.876Z,3.70
2023-03-27T05:52:18.898Z,3.75
2023-03-27T05:53:18.864Z,3.70
2023-03-27T05:54:18.854Z,3.73
2023-03-27T05:55:18.831Z,3.75
2023-03-27T05:56:18.850Z,3.76
2023-03-27T05:57:18.887Z,3.78
2023-03-27T05:58:18.857Z,3.83
2023-03-27T05:59:23.823Z,3.73
2023-03-27T06:00:18.781Z,3.76
2023-03-27T06:01:18.765Z,3.88
2023-03-27T06:02:21.271Z,3.72
2023-03-27T06:03:18.912Z,3.72
2023-03-27T06:04:18.834Z,3.73
2023-03-27T06:05:18.722Z,3.76
2023-03-27T06:06:18.709Z,3.88
2023-03-27T06:07:18.710Z,3.88
2023-03-27T06:08:18.690Z,3.91
2023-03-27T06:09:18.690Z,3.88
2023-03-27T06:10:23.738Z,3.91
2023-03-27T06:11:18.655Z,3.87
2023-03-27T06:12:18.670Z,3.96
2023-03-27T06:13:18.648Z,3.91
2023-03-27T06:14:18.629Z,3.98
2023-03-27T06:15:18.612Z,4.02
2023-03-27T06:16:18.661Z,4.02
2023-03-27T06:17:18.590Z,3.90
2023-03-27T06:18:18.577Z,4.09
2023-03-27T06:19:18.573Z,4.11
2023-03-27T06:20:18.552Z,4.11
2023-03-27T06:21:23.565Z,4.14
2023-03-27T06:22:18.582Z,4.16
2023-03-27T06:23:18.550Z,4.14
2023-03-27T06:24:18.526Z,4.23
2023-03-27T06:25:18.497Z,4.20
2023-03-27T06:26:18.487Z,4.24
2023-03-27T06:27:18.482Z,4.23
2023-03-27T06:28:18.485Z,4.29
2023-03-27T06:29:18.519Z,4.24
2023-03-27T06:30:18.462Z,4.32
2023-03-27T06:31:18.454Z,4.27
2023-03-27T06:32:23.912Z,4.30
2023-03-27T06:33:18.409Z,4.33
2023-03-27T06:34:18.413Z,4.45
2023-03-27T06:35:18.469Z,4.42
2023-03-27T06:36:18.423Z,4.48
2023-03-27T06:37:18.363Z,4.58
2023-03-27T06:38:18.352Z,4.63
2023-03-27T06:39:18.356Z,4.66
2023-03-27T06:40:18.334Z,4.72
2023-03-27T06:41:18.348Z,4.72
2023-03-27T06:42:18.365Z,4.89
2023-03-27T06:43:23.334Z,4.89
2023-03-27T06:44:18.300Z,4.86
2023-03-27T06:45:18.276Z,4.89
2023-03-27T06:46:18.283Z,4.85
2023-03-27T06:47:18.344Z,4.91
2023-03-27T06:48:21.499Z,4.94
2023-03-27T06:49:18.239Z,4.91
2023-03-27T06:50:18.229Z,4.92
2023-03-27T06:51:18.204Z,4.94
2023-03-27T06:52:18.197Z,5.00
2023-03-27T06:54:23.206Z,4.91
2023-03-27T06:55:18.167Z,4.84
2023-03-27T06:56:18.161Z,4.85
2023-03-27T06:57:18.212Z,4.89
2023-03-27T06:58:18.128Z,4.75
2023-03-27T06:59:18.178Z,4.72
2023-03-27T07:00:18.145Z,4.67
2023-03-27T07:01:18.091Z,4.82
2023-03-27T07:02:18.080Z,4.91
2023-03-27T07:03:18.306Z,4.99
2023-03-27T07:04:18.066Z,4.99
2023-03-27T07:05:23.158Z,5.00
2023-03-27T07:06:18.034Z,5.06
2023-03-27T07:07:18.022Z,5.00
2023-03-27T07:08:24.349Z,5.06
2023-03-27T07:09:19.032Z,4.97
2023-03-27T07:10:17.990Z,5.04
2023-03-27T07:11:18.520Z,5.17
2023-03-27T07:12:17.982Z,5.03
2023-03-27T07:13:17.955Z,5.13
2023-03-27T07:14:17.939Z,5.17
2023-03-27T07:15:17.975Z,5.18
2023-03-27T07:16:22.987Z,5.21
2023-03-27T07:17:17.927Z,5.17
2023-03-27T07:18:17.990Z,5.12
2023-03-27T07:19:17.881Z,5.27
2023-03-27T07:20:17.901Z,5.24
2023-03-27T07:21:17.860Z,5.13
2023-03-27T07:22:17.908Z,5.27
2023-03-27T07:23:17.854Z,5.22
2023-03-27T07:24:17.856Z,5.28
2023-03-27T07:25:17.823Z,5.27
2023-03-27T07:26:17.806Z,5.33
2023-03-27T07:27:22.836Z,5.36
2023-03-27T07:28:17.781Z,5.39
2023-03-27T07:29:17.798Z,5.33
2023-03-27T07:30:17.782Z,5.35
2023-03-27T07:31:29.898Z,5.42
2023-03-27T07:32:29.797Z,5.48
2023-03-27T07:33:17.767Z,5.45
2023-03-27T07:34:17.913Z,5.49
2023-03-27T07:35:17.821Z,5.42
2023-03-27T07:36:17.706Z,5.54
2023-03-27T07:37:17.676Z,5.56
2023-03-27T07:38:22.704Z,5.57
2023-03-27T07:39:17.671Z,5.58
2023-03-27T07:40:19.927Z,5.56
2023-03-27T07:41:17.723Z,5.68
2023-03-27T07:42:17.633Z,5.76
2023-03-27T07:43:17.661Z,5.82
2023-03-27T07:44:17.607Z,5.83
2023-03-27T07:45:17.709Z,5.91
2023-03-27T07:46:17.650Z,6.04
2023-03-27T07:47:17.611Z,6.27
2023-03-27T07:48:17.566Z,6.58
2023-03-27T07:49:39.685Z,6.99
2023-03-27T07:50:17.562Z,7.35
2023-03-27T07:51:17.526Z,7.86
2023-03-27T07:52:17.521Z,8.15
2023-03-27T07:53:33.300Z,8.40
2023-03-27T07:54:17.498Z,8.37
2023-03-27T07:55:17.500Z,8.61
2023-03-27T07:56:17.467Z,9.01
2023-03-27T07:57:17.510Z,9.26
2023-03-27T07:58:17.543Z,9.32
2023-03-27T07:59:17.466Z,9.47
2023-03-27T08:00:22.607Z,9.71
2023-03-27T08:01:17.440Z,9.56
2023-03-27T08:02:17.408Z,9.53
2023-03-27T08:03:17.648Z,9.39
2023-03-27T08:04:17.490Z,9.50
2023-03-27T08:05:17.397Z,9.24
2023-03-27T08:06:17.448Z,9.20
2023-03-27T08:07:17.353Z,8.73
2023-03-27T08:08:17.437Z,8.95
2023-03-27T08:09:17.325Z,9.29
2023-03-27T08:10:17.323Z,9.31
2023-03-27T08:11:30.386Z,9.42
2023-03-27T08:12:17.290Z,9.35
2023-03-27T08:13:17.312Z,9.26
2023-03-27T08:14:17.272Z,9.23
2023-03-27T08:15:17.262Z,9.28
2023-03-27T08:16:17.272Z,9.40
2023-03-27T08:17:18.208Z,9.51
2023-03-27T08:18:17.243Z,9.74
2023-03-27T08:19:17.230Z,9.91
2023-03-27T08:20:17.210Z,9.87
2023-03-27T08:21:17.214Z,9.75
2023-03-27T08:22:22.196Z,9.87
2023-03-27T08:23:17.161Z,9.94
2023-03-27T08:24:17.156Z,9.61
2023-03-27T08:25:17.179Z,9.46
2023-03-27T08:26:17.130Z,9.99
2023-03-27T08:27:17.120Z,10.02
2023-03-27T08:28:17.100Z,9.50
2023-03-27T08:29:17.093Z,8.84
2023-03-27T08:30:17.420Z,8.59
2023-03-27T08:31:17.193Z,9.24
2023-03-27T08:32:17.069Z,9.38
2023-03-27T08:33:22.067Z,9.46
2023-03-27T08:34:17.059Z,9.28
2023-03-27T08:35:17.132Z,9.17
2023-03-27T08:36:17.018Z,9.32
2023-03-27T08:37:17.028Z,9.48
2023-03-27T08:38:25.982Z,9.74
2023-03-27T08:39:16.985Z,10.23
2023-03-27T08:40:16.987Z,10.30
2023-03-27T08:41:16.953Z,10.25
2023-03-27T08:42:18.925Z,10.45
2023-03-27T08:43:16.965Z,10.07
2023-03-27T08:44:21.957Z,9.69
2023-03-27T08:45:16.918Z,9.81
2023-03-27T08:46:16.928Z,9.32
2023-03-27T08:47:16.886Z,8.73
2023-03-27T08:48:16.876Z,8.71
2023-03-27T08:49:16.900Z,8.73
2023-03-27T08:50:16.864Z,8.91
2023-03-27T08:51:16.875Z,8.99
2023-03-27T08:52:16.840Z,8.61
2023-03-27T08:53:16.827Z,8.34
2023-03-27T08:54:16.820Z,8.22
2023-03-27T08:55:21.870Z,8.02
2023-03-27T08:56:16.809Z,7.80
2023-03-27T08:57:16.853Z,7.63
2023-03-27T08:58:16.773Z,7.67
2023-03-27T08:59:17.487Z,7.64
2023-03-27T09:00:16.750Z,8.01
2023-03-27T09:01:16.794Z,8.53
2023-03-27T09:02:16.768Z,8.94
2023-03-27T09:03:16.823Z,8.99
2023-03-27T09:04:16.703Z,8.66
2023-03-27T09:05:16.741Z,9.29
2023-03-27T09:06:21.777Z,9.20
2023-03-27T09:07:16.717Z,9.58
2023-03-27T09:08:16.648Z,9.43
2023-03-27T09:09:16.652Z,9.26
2023-03-27T09:10:16.646Z,9.69
2023-03-27T09:11:16.628Z,10.40
2023-03-27T09:12:16.607Z,10.79
2023-03-27T09:13:16.646Z,10.86
2023-03-27T09:14:16.593Z,10.89
2023-03-27T09:15:16.585Z,10.71
2023-03-27T09:16:16.599Z,9.94
2023-03-27T09:17:21.569Z,9.56
2023-03-27T09:18:16.535Z,9.42
2023-03-27T09:19:16.548Z,9.23
2023-03-27T09:20:16.515Z,8.81
2023-03-27T09:21:16.510Z,9.14
2023-03-27T09:22:16.520Z,9.35
2023-03-27T09:23:16.872Z,9.66
2023-03-27T09:24:16.471Z,9.90
2023-03-27T09:25:16.490Z,10.01
2023-03-27T09:26:16.454Z,10.17
2023-03-27T09:27:16.469Z,10.07
2023-03-27T09:28:21.453Z,9.66
2023-03-27T09:29:19.978Z,9.90
2023-03-27T09:30:16.425Z,9.71
2023-03-27T09:31:16.477Z,9.57
2023-03-27T09:32:16.382Z,9.51
2023-03-27T09:33:16.376Z,9.91
2023-03-27T09:34:16.360Z,10.09
2023-03-27T09:35:16.444Z,10.08
2023-03-27T09:36:16.342Z,10.02
2023-03-27T09:37:17.472Z,9.53
2023-03-27T09:38:16.329Z,9.38
2023-03-27T09:39:21.323Z,9.33
2023-03-27T09:40:16.289Z,9.11
2023-03-27T09:41:16.281Z,9.15
2023-03-27T09:42:16.268Z,9.17
2023-03-27T09:43:16.283Z,9.08
2023-03-27T09:44:16.252Z,8.83
2023-03-27T09:45:16.252Z,8.71
2023-03-27T09:46:16.270Z,8.74
2023-03-27T09:47:16.203Z,8.59
2023-03-27T09:48:16.207Z,8.65
2023-03-27T09:49:16.278Z,8.80
2023-03-27T09:50:21.220Z,9.31
2023-03-27T09:51:16.169Z,9.71
2023-03-27T09:52:16.151Z,9.93
2023-03-27T09:53:16.144Z,10.23
2023-03-27T09:54:16.147Z,10.25
2023-03-27T09:55:16.163Z,9.91
2023-03-27T09:56:16.114Z,9.66
2023-03-27T09:57:16.150Z,9.56
2023-03-27T09:58:16.096Z,9.48
2023-03-27T09:59:16.072Z,9.15
2023-03-27T10:00:16.097Z,8.91
2023-03-27T10:01:21.156Z,8.66
2023-03-27T10:02:16.038Z,8.63
2023-03-27T10:03:16.533Z,8.45
2023-03-27T10:04:16.084Z,8.41
2023-03-27T10:05:16.004Z,8.36
2023-03-27T10:06:16.000Z,8.00
2023-03-27T10:07:15.990Z,7.89
2023-03-27T10:08:15.970Z,7.83
2023-03-27T10:09:16.007Z,7.74
2023-03-27T10:10:16.037Z,7.75
2023-03-27T10:11:15.957Z,7.63
2023-03-27T10:12:20.966Z,7.75
2023-03-27T10:13:15.951Z,7.98
2023-03-27T10:14:15.982Z,8.43
2023-03-27T10:15:15.919Z,8.65
2023-03-27T10:16:15.932Z,8.87
2023-03-27T10:17:15.880Z,8.99
2023-03-27T10:18:15.857Z,9.26
2023-03-27T10:19:15.880Z,9.53
2023-03-27T10:20:15.979Z,9.54
2023-03-27T10:21:15.867Z,9.87
2023-03-27T10:22:15.813Z,9.87
2023-03-27T10:23:20.855Z,10.04
2023-03-27T10:24:15.797Z,9.99
2023-03-27T10:25:15.784Z,9.99
2023-03-27T10:26:15.811Z,9.99
2023-03-27T10:27:15.792Z,9.97
2023-03-27T10:28:15.788Z,9.64
2023-03-27T10:29:15.732Z,9.46
2023-03-27T10:30:15.734Z,9.38
2023-03-27T10:31:15.735Z,9.26
2023-03-27T10:32:15.733Z,9.21
2023-03-27T10:33:15.757Z,9.31
2023-03-27T10:34:20.723Z,9.29
2023-03-27T10:35:15.672Z,9.20
2023-03-27T10:36:15.668Z,9.21
2023-03-27T10:37:15.659Z,9.14
2023-03-27T10:38:15.641Z,9.01
2023-03-27T10:39:15.619Z,8.94
2023-03-27T10:40:15.616Z,9.04
2023-03-27T10:41:15.597Z,8.95
2023-03-27T10:42:15.621Z,8.77
2023-03-27T10:43:15.583Z,9.01
2023-03-27T10:44:15.563Z,9.64
2023-03-27T10:45:20.588Z,10.17
2023-03-27T10:46:15.689Z,10.55
2023-03-27T10:47:15.540Z,10.53
2023-03-27T10:48:15.517Z,10.73
2023-03-27T10:49:17.425Z,11.14
2023-03-27T10:50:15.569Z,11.00
2023-03-27T10:51:15.481Z,10.56
2023-03-27T10:52:15.510Z,10.33
2023-03-27T10:53:15.545Z,10.14
2023-03-27T10:54:15.500Z,10.04
2023-03-27T10:55:15.437Z,9.93
2023-03-27T10:56:20.454Z,9.71
2023-03-27T10:57:15.506Z,9.58
2023-03-27T10:58:15.467Z,9.54
2023-03-27T10:59:15.440Z,9.33
2023-03-27T11:00:15.406Z,9.20
2023-03-27T11:01:15.410Z,9.15
2023-03-27T11:02:15.383Z,8.96
2023-03-27T11:03:15.388Z,8.92
2023-03-27T11:04:15.392Z,8.80
2023-03-27T11:05:15.412Z,8.79
2023-03-27T11:06:15.369Z,8.70
2023-03-27T11:07:20.366Z,8.91
2023-03-27T11:08:15.293Z,8.86
2023-03-27T11:09:15.285Z,8.79
2023-03-27T11:10:15.267Z,8.74
2023-03-27T11:11:15.348Z,8.68
2023-03-27T11:12:15.263Z,8.77
2023-03-27T11:13:15.238Z,8.73
2023-03-27T11:14:15.278Z,8.70
2023-03-27T11:15:15.207Z,8.65
2023-03-27T11:16:15.200Z,8.52
2023-03-27T11:17:15.216Z,8.50
2023-03-27T11:18:20.191Z,8.53
2023-03-27T11:19:15.272Z,8.45
2023-03-27T11:20:15.150Z,8.37
2023-03-27T11:21:15.138Z,8.28
2023-03-27T11:22:15.138Z,8.25
2023-03-27T11:23:15.172Z,8.22
2023-03-27T11:24:15.101Z,8.16
2023-03-27T11:25:15.107Z,8.20
2023-03-27T11:26:15.093Z,8.28
2023-03-27T11:27:15.071Z,8.48
2023-03-27T11:28:15.090Z,8.77
2023-03-27T11:29:20.122Z,9.01
2023-03-27T11:30:15.078Z,9.38
2023-03-27T11:31:15.120Z,9.51
2023-03-27T11:32:15.039Z,9.43
2023-03-27T11:33:15.018Z,9.54
2023-03-27T11:34:14.994Z,9.81
2023-03-27T11:35:15.005Z,10.26
2023-03-27T11:36:15.001Z,10.55
2023-03-27T11:37:14.973Z,10.73
2023-03-27T11:38:14.965Z,11.00
2023-03-27T11:39:14.938Z,10.70
2023-03-27T11:40:19.943Z,10.94
2023-03-27T11:41:15.604Z,10.84
2023-03-27T11:42:14.896Z,10.51
2023-03-27T11:43:14.900Z,10.38
2023-03-27T11:44:14.905Z,10.56
2023-03-27T11:45:14.883Z,10.60
2023-03-27T11:46:14.876Z,10.44
2023-03-27T11:47:14.843Z,10.55
2023-03-27T11:48:14.954Z,10.61
2023-03-27T11:49:14.822Z,10.91
2023-03-27T11:50:14.830Z,11.15
2023-03-27T11:51:19.823Z,11.18
2023-03-27T11:52:14.794Z,11.04
2023-03-27T11:53:14.800Z,11.18
2023-03-27T11:54:14.802Z,10.97
2023-03-27T11:55:14.767Z,10.56
2023-03-27T11:56:14.740Z,10.40
2023-03-27T11:57:14.766Z,10.04
2023-03-27T11:58:14.734Z,9.74
2023-03-27T11:59:14.712Z,9.93
2023-03-27T12:00:14.750Z,10.30
2023-03-27T12:01:17.214Z,10.30
2023-03-27T12:02:19.749Z,10.44
2023-03-27T12:03:14.781Z,10.76
2023-03-27T12:04:14.711Z,11.19
2023-03-27T12:05:14.654Z,11.29
2023-03-27T12:06:14.709Z,11.60
2023-03-27T12:07:15.522Z,11.61
2023-03-27T12:08:14.616Z,11.99
2023-03-27T12:09:14.595Z,12.10
2023-03-27T12:10:14.587Z,11.79
2023-03-27T12:11:14.577Z,11.14
2023-03-27T12:12:14.580Z,11.27
2023-03-27T12:13:19.588Z,11.60
2023-03-27T12:14:18.321Z,12.02
2023-03-27T12:15:14.538Z,12.60
2023-03-27T12:16:14.554Z,13.07
2023-03-27T12:17:14.538Z,12.62
2023-03-27T12:18:14.533Z,12.14
2023-03-27T12:19:27.613Z,12.39
2023-03-27T12:20:14.477Z,12.56
2023-03-27T12:21:14.456Z,12.92
2023-03-27T12:22:23.505Z,13.38
2023-03-27T12:23:14.452Z,13.48
2023-03-27T12:24:19.506Z,13.00
2023-03-27T12:25:14.408Z,13.23
2023-03-27T12:26:14.409Z,13.75
2023-03-27T12:27:14.395Z,13.96
2023-03-27T12:28:22.668Z,13.82
2023-03-27T12:29:23.413Z,13.32
2023-03-27T12:30:14.371Z,12.97
2023-03-27T12:31:14.348Z,13.38
2023-03-27T12:32:14.416Z,13.07
2023-03-27T12:33:14.399Z,13.03
2023-03-27T12:34:14.310Z,12.87
2023-03-27T12:35:21.595Z,13.12
2023-03-27T12:36:14.301Z,13.38
2023-03-27T12:37:14.277Z,13.00
2023-03-27T12:38:14.264Z,12.37
2023-03-27T12:39:14.261Z,12.04
2023-03-27T12:40:14.246Z,11.88
2023-03-27T12:41:14.234Z,11.37
2023-03-27T12:42:14.236Z,11.14
2023-03-27T12:43:14.206Z,10.64
2023-03-27T12:44:14.204Z,10.32
2023-03-27T12:45:14.186Z,10.08
2023-03-27T12:46:19.325Z,9.65
2023-03-27T12:47:14.168Z,9.40
2023-03-27T12:48:14.163Z,9.24
2023-03-27T12:49:14.194Z,9.01
2023-03-27T12:50:14.147Z,8.92
2023-03-27T12:51:14.130Z,8.79
2023-03-27T12:52:15.135Z,8.83
2023-03-27T12:53:14.101Z,8.99
2023-03-27T12:54:14.125Z,8.87
2023-03-27T12:55:14.076Z,8.98
2023-03-27T12:56:14.060Z,9.01
2023-03-27T12:57:19.269Z,8.92
2023-03-27T12:58:14.223Z,8.91
2023-03-27T12:59:14.032Z,8.62
2023-03-27T13:00:14.033Z,8.22
2023-03-27T13:01:14.021Z,7.98
2023-03-27T13:02:14.140Z,7.86
2023-03-27T13:03:14.121Z,7.87
2023-03-27T13:04:13.976Z,7.87
2023-03-27T13:05:26.339Z,8.00
2023-03-27T13:06:14.962Z,8.00
2023-03-27T13:07:14.009Z,7.98
2023-03-27T13:08:18.948Z,7.86
2023-03-27T13:09:13.927Z,7.83
2023-03-27T13:10:13.902Z,7.97
2023-03-27T13:11:13.893Z,8.05
2023-03-27T13:12:13.937Z,8.22
2023-03-27T13:13:13.910Z,8.22
2023-03-27T13:14:13.866Z,8.33
2023-03-27T13:15:13.869Z,8.30
2023-03-27T13:16:13.997Z,8.30